Time;durP1;ratioP1;P1;durP2;ratioP2;P2;SDS_P1;SDS_P2;PMS_P1;PMS_P2;Temp;Humidity;BMP_temperature;BMP_pressure;BME280_temperature;BME280_humidity;BME280_pressure;Samples;Min_cycle;Max_cycle;Signal;HPM_P1;HPM_P2
2023/01/02 00:00:56;;;;;;;;;;;11.60;99.90;;;;;;8372258;28;19946;-73
2023/01/02 00:04:58;;;;;;;;;;;11.60;99.90;;;;;;8390328;28;19929;-73
2023/01/02 00:09:00;;;;;;;;;;;11.60;99.90;;;;;;8381749;28;19982;-73
2023/01/02 00:13:01;;;;;;;;;;;11.60;99.90;;;;;;8389176;28;19971;-73
2023/01/02 00:17:03;;;;;;;;;;;11.60;99.90;;;;;;8388688;28;19941;-73
2023/01/02 00:21:05;;;;;;;;;;;11.60;99.90;;;;;;8399963;28;20403;-73
2023/01/02 00:25:06;;;;;;;;;;;11.60;99.90;;;;;;8403654;28;20369;-73
2023/01/02 00:29:08;;;;;;;;;;;11.60;99.90;;;;;;8389143;28;20380;-73
2023/01/02 00:33:10;;;;;;;;;;;11.60;99.90;;;;;;8370301;28;20292;-73
2023/01/02 00:37:11;;;;;;;;;;;11.60;99.90;;;;;;8381803;28;19940;-73
2023/01/02 00:41:13;;;;;;;;;;;11.60;99.90;;;;;;8378048;28;19928;-73
2023/01/02 00:45:15;;;;;;;;;;;11.60;99.90;;;;;;8386494;28;19924;-73
2023/01/02 00:49:16;;;;;;;;;;;11.60;99.90;;;;;;8389573;28;19925;-73
2023/01/02 00:53:18;;;;;;;;;;;11.60;99.90;;;;;;8370290;28;19968;-73
2023/01/02 00:57:19;;;;;;;;;;;11.60;99.90;;;;;;8373479;28;19925;-73
2023/01/02 01:01:21;;;;;;;;;;;11.70;99.90;;;;;;8376258;28;19999;-73
2023/01/02 01:05:24;;;;;;;;;;;11.70;99.90;;;;;;8389126;28;19983;-73
2023/01/02 01:09:26;;;;;;;;;;;11.70;99.90;;;;;;8392584;28;19924;-72
2023/01/02 01:13:27;;;;;;;;;;;11.80;99.90;;;;;;8388894;28;19931;-73
2023/01/02 01:17:30;;;;;;;;;;;11.90;99.90;;;;;;8376114;28;19983;-73
2023/01/02 01:21:32;;;;;;;;;;;11.90;99.90;;;;;;8385306;28;20248;-73
2023/01/02 01:25:35;;;;;;;;;;;12.00;99.90;;;;;;8380009;28;19925;-73
2023/01/02 01:29:37;;;;;;;;;;;12.00;99.90;;;;;;8382755;28;19932;-73
2023/01/02 01:33:39;;;;;;;;;;;12.00;99.90;;;;;;8379185;28;19928;-73
2023/01/02 01:37:40;;;;;;;;;;;12.00;99.90;;;;;;8387127;28;19928;-73
2023/01/02 01:41:42;;;;;;;;;;;12.10;99.90;;;;;;8380642;28;19924;-73
2023/01/02 01:45:44;;;;;;;;;;;12.10;99.90;;;;;;8386705;28;20407;-73
2023/01/02 01:49:46;;;;;;;;;;;12.10;99.90;;;;;;8382124;28;19967;-73
2023/01/02 01:53:49;;;;;;;;;;;12.10;99.90;;;;;;8375409;28;20007;-73
2023/01/02 01:57:53;;;;;;;;;;;12.10;99.90;;;;;;8391817;28;20400;-73
2023/01/02 02:01:55;;;;;;;;;;;12.10;99.90;;;;;;8379942;28;20368;-73
2023/01/02 02:05:58;;;;;;;;;;;12.20;99.90;;;;;;8373025;28;19932;-73
2023/01/02 02:10:05;;;;;;;;;;;12.20;99.90;;;;;;8382330;28;19938;-73
2023/01/02 02:14:07;;;;;;;;;;;12.20;99.90;;;;;;8366937;28;19924;-73
2023/01/02 02:23:21;;;;;;;;;;;12.20;99.90;;;;;;8381539;28;19962;-73
2023/01/02 02:37:42;;;;;;;;;;;12.30;99.90;;;;;;8385066;28;20421;-73
2023/01/02 02:41:53;;;;;;;;;;;12.40;99.90;;;;;;8384748;28;19928;-73
2023/01/02 02:46:12;;;;;;;;;;;12.40;99.90;;;;;;8366282;28;19986;-73
2023/01/02 02:50:30;;;;;;;;;;;12.40;99.90;;;;;;8376167;28;19974;-73
2023/01/02 02:54:50;;;;;;;;;;;12.50;99.90;;;;;;8389428;28;19935;-73
2023/01/02 02:58:52;;;;;;;;;;;12.50;99.90;;;;;;8385483;28;20033;-73
2023/01/02 03:02:53;;;;;;;;;;;12.50;99.90;;;;;;8386982;28;19963;-73
2023/01/02 03:07:07;;;;;;;;;;;12.50;99.90;;;;;;8379410;28;19928;-73
2023/01/02 03:11:09;;;;;;;;;;;12.60;99.90;;;;;;8389632;28;19928;-73
2023/01/02 03:15:24;;;;;;;;;;;12.60;99.90;;;;;;8388350;28;20014;-73
2023/01/02 03:19:29;;;;;;;;;;;12.60;99.90;;;;;;8386325;28;19924;-73
2023/01/02 03:23:34;;;;;;;;;;;12.70;99.90;;;;;;8397817;28;19942;-73
2023/01/02 03:27:38;;;;;;;;;;;12.70;99.90;;;;;;8391372;28;20372;-73
2023/01/02 03:31:42;;;;;;;;;;;12.70;99.90;;;;;;8388900;28;19963;-73
2023/01/02 03:35:47;;;;;;;;;;;12.80;99.90;;;;;;8401476;28;20364;-73
2023/01/02 03:39:51;;;;;;;;;;;12.80;99.90;;;;;;8382254;28;19925;-73
2023/01/02 03:43:54;;;;;;;;;;;12.80;99.90;;;;;;8368586;28;19925;-73
2023/01/02 03:48:16;;;;;;;;;;;12.80;99.90;;;;;;8387904;28;19974;-73
2023/01/02 03:52:18;;;;;;;;;;;12.80;99.90;;;;;;8391086;28;19963;-73
2023/01/02 03:56:35;;;;;;;;;;;12.80;99.90;;;;;;8386879;28;19964;-72
2023/01/02 04:00:42;;;;;;;;;;;12.90;99.90;;;;;;8376059;28;20388;-73
2023/01/02 04:04:55;;;;;;;;;;;12.90;99.90;;;;;;8387098;28;19924;-73
2023/01/02 04:09:03;;;;;;;;;;;12.90;99.90;;;;;;8383680;28;19940;-73
2023/01/02 04:13:08;;;;;;;;;;;12.90;99.90;;;;;;8373924;28;19925;-73
2023/01/02 04:17:11;;;;;;;;;;;12.80;99.90;;;;;;8386148;28;19936;-73
2023/01/02 04:21:18;;;;;;;;;;;12.80;99.90;;;;;;8374282;28;19935;-73
2023/01/02 04:25:21;;;;;;;;;;;12.80;99.90;;;;;;8391841;28;19924;-73
2023/01/02 04:29:24;;;;;;;;;;;12.80;99.90;;;;;;8393460;28;19924;-73
2023/01/02 04:33:26;;;;;;;;;;;12.70;99.90;;;;;;8384689;28;19928;-73
2023/01/02 04:37:30;;;;;;;;;;;12.70;99.90;;;;;;8375890;28;19924;-73
2023/01/02 04:41:32;;;;;;;;;;;12.60;99.90;;;;;;8383436;28;19936;-73
2023/01/02 04:45:34;;;;;;;;;;;12.70;99.90;;;;;;8385468;28;19983;-73
2023/01/02 04:49:35;;;;;;;;;;;12.60;99.90;;;;;;8380519;28;19935;-73
2023/01/02 04:53:37;;;;;;;;;;;12.60;99.90;;;;;;8381081;28;19935;-73
2023/01/02 04:57:38;;;;;;;;;;;12.70;99.90;;;;;;8381159;28;20360;-73
2023/01/02 05:01:40;;;;;;;;;;;12.70;99.90;;;;;;8388949;28;20349;-73
2023/01/02 05:05:42;;;;;;;;;;;12.70;99.90;;;;;;8366760;28;19971;-73
2023/01/02 05:09:44;;;;;;;;;;;12.70;99.90;;;;;;8379893;28;19925;-73
2023/01/02 05:13:45;;;;;;;;;;;12.70;99.90;;;;;;8399473;28;19924;-72
2023/01/02 05:17:47;;;;;;;;;;;12.70;99.90;;;;;;8398151;28;20380;-73
2023/01/02 05:26:11;;;;;;;;;;;12.60;99.90;;;;;;8376631;28;20285;-73
2023/01/02 05:30:12;;;;;;;;;;;12.60;99.90;;;;;;8379304;28;19968;-73
2023/01/02 05:34:15;;;;;;;;;;;12.60;99.90;;;;;;8383394;28;19924;-73
2023/01/02 05:38:16;;;;;;;;;;;12.60;99.90;;;;;;8383849;28;19941;-73
2023/01/02 05:42:18;;;;;;;;;;;12.60;99.90;;;;;;8359785;28;19971;-73
2023/01/02 05:46:20;;;;;;;;;;;12.70;99.90;;;;;;8379456;28;20475;-73
2023/01/02 05:50:21;;;;;;;;;;;12.60;99.90;;;;;;8387088;28;20389;-73
2023/01/02 05:54:23;;;;;;;;;;;12.50;99.90;;;;;;8390400;28;20325;-73
2023/01/02 05:58:25;;;;;;;;;;;12.10;99.90;;;;;;8382397;28;19925;-74
2023/01/02 06:02:26;;;;;;;;;;;11.80;99.90;;;;;;8385535;28;19928;-74
2023/01/02 06:06:30;;;;;;;;;;;11.40;99.90;;;;;;8376091;28;20007;-73
2023/01/02 06:10:32;;;;;;;;;;;11.20;99.90;;;;;;8388579;28;20259;-73
2023/01/02 06:14:33;;;;;;;;;;;11.10;99.90;;;;;;8389751;28;20010;-73
2023/01/02 06:18:36;;;;;;;;;;;11.00;99.90;;;;;;8358921;28;19924;-73
2023/01/02 06:22:38;;;;;;;;;;;10.90;99.90;;;;;;8370674;28;19932;-73
2023/01/02 06:26:39;;;;;;;;;;;10.90;99.90;;;;;;8387506;28;19928;-73
2023/01/02 06:30:41;;;;;;;;;;;10.80;99.90;;;;;;8374370;28;19929;-73
2023/01/02 06:34:42;;;;;;;;;;;10.70;99.90;;;;;;8382966;28;20368;-73
2023/01/02 06:38:44;;;;;;;;;;;10.70;99.90;;;;;;8380858;28;19971;-72
2023/01/02 06:42:46;;;;;;;;;;;10.60;99.90;;;;;;8384343;28;19951;-72
2023/01/02 06:46:48;;;;;;;;;;;10.60;99.90;;;;;;8388231;28;19971;-73
2023/01/02 06:50:49;;;;;;;;;;;10.50;99.90;;;;;;8398362;28;19925;-73
2023/01/02 06:54:51;;;;;;;;;;;10.50;99.90;;;;;;8368757;28;19933;-73
2023/01/02 06:58:52;;;;;;;;;;;10.40;99.90;;;;;;8391572;28;19925;-72
2023/01/02 07:02:54;;;;;;;;;;;10.40;99.90;;;;;;8390825;28;19935;-73
2023/01/02 07:06:56;;;;;;;;;;;10.40;99.90;;;;;;8393625;28;19932;-73
2023/01/02 07:11:18;;;;;;;;;;;10.40;99.90;;;;;;8393620;28;19924;-73
2023/01/02 07:15:19;;;;;;;;;;;10.40;99.90;;;;;;8389787;28;20091;-73
2023/01/02 07:19:21;;;;;;;;;;;10.40;99.90;;;;;;8388364;28;19924;-73
2023/01/02 07:23:23;;;;;;;;;;;10.30;99.90;;;;;;8380557;28;19967;-73
2023/01/02 07:27:24;;;;;;;;;;;10.30;99.90;;;;;;8394154;28;19960;-73
2023/01/02 07:31:28;;;;;;;;;;;10.20;99.90;;;;;;8390469;28;19924;-73
2023/01/02 07:35:30;;;;;;;;;;;10.10;99.90;;;;;;8392246;28;19924;-73
2023/01/02 07:39:31;;;;;;;;;;;10.10;99.90;;;;;;8376001;28;20037;-73
2023/01/02 07:43:33;;;;;;;;;;;10.00;99.90;;;;;;8386604;28;19975;-73
2023/01/02 07:47:34;;;;;;;;;;;10.00;99.90;;;;;;8389404;28;20051;-73
2023/01/02 07:51:36;;;;;;;;;;;9.90;99.90;;;;;;8392296;28;19929;-73
2023/01/02 07:55:38;;;;;;;;;;;9.90;99.90;;;;;;8388317;28;19964;-73
2023/01/02 07:59:39;;;;;;;;;;;9.90;99.90;;;;;;8401114;28;19928;-73
2023/01/02 08:03:41;;;;;;;;;;;9.80;99.90;;;;;;8376036;28;19928;-73
2023/01/02 08:07:46;;;;;;;;;;;9.80;99.90;;;;;;8369869;28;19932;-73
2023/01/02 08:11:47;;;;;;;;;;;9.80;99.90;;;;;;8389552;28;19933;-73
2023/01/02 08:15:49;;;;;;;;;;;9.80;99.90;;;;;;8396301;28;20396;-73
2023/01/02 08:19:51;;;;;;;;;;;9.80;99.90;;;;;;8389172;28;19930;-73
2023/01/02 08:23:52;;;;;;;;;;;9.80;99.90;;;;;;8383298;28;20299;-73
2023/01/02 08:27:54;;;;;;;;;;;9.80;99.90;;;;;;8387534;28;20180;-72
2023/01/02 08:31:59;;;;;;;;;;;9.80;99.90;;;;;;8389554;28;19944;-73
2023/01/02 08:36:00;;;;;;;;;;;9.70;99.90;;;;;;8385536;28;19924;-73
2023/01/02 08:40:03;;;;;;;;;;;9.70;99.90;;;;;;8383623;28;20023;-73
2023/01/02 08:44:05;;;;;;;;;;;9.70;99.90;;;;;;8382459;28;19990;-73
2023/01/02 08:48:06;;;;;;;;;;;9.70;99.90;;;;;;8366557;28;19971;-73
2023/01/02 08:52:22;;;;;;;;;;;9.70;99.90;;;;;;8383124;28;19970;-73
2023/01/02 08:56:25;;;;;;;;;;;9.70;99.90;;;;;;8370890;28;20027;-73
2023/01/02 09:00:26;;;;;;;;;;;9.70;99.90;;;;;;8356288;28;19971;-73
2023/01/02 09:04:28;;;;;;;;;;;9.70;99.90;;;;;;8388735;28;19928;-73
2023/01/02 09:08:30;;;;;;;;;;;9.70;99.90;;;;;;8400065;28;20031;-73
2023/01/02 09:12:32;;;;;;;;;;;9.70;99.90;;;;;;8382395;28;19933;-73
2023/01/02 09:16:33;;;;;;;;;;;9.70;99.90;;;;;;8387150;28;19924;-73
2023/01/02 09:20:38;;;;;;;;;;;9.70;99.90;;;;;;8384067;28;20348;-73
2023/01/02 09:24:40;;;;;;;;;;;9.70;99.90;;;;;;8378057;28;20767;-73
2023/01/02 09:28:42;;;;;;;;;;;9.70;99.90;;;;;;8406322;28;19924;-73
2023/01/02 09:32:44;;;;;;;;;;;9.70;99.90;;;;;;8366318;28;19947;-73
2023/01/02 09:36:46;;;;;;;;;;;9.70;99.90;;;;;;8379475;28;19947;-73
2023/01/02 09:40:50;;;;;;;;;;;9.80;99.90;;;;;;8365380;28;20015;-73
2023/01/02 09:44:53;;;;;;;;;;;9.90;99.90;;;;;;8383561;28;19936;-73
2023/01/02 09:48:54;;;;;;;;;;;9.80;99.90;;;;;;8384958;28;20291;-73
2023/01/02 09:52:57;;;;;;;;;;;9.80;99.90;;;;;;8362352;28;19925;-73
2023/01/02 09:57:10;;;;;;;;;;;9.80;99.90;;;;;;8381656;28;19932;-73
2023/01/02 10:01:17;;;;;;;;;;;9.70;99.90;;;;;;8387035;28;19946;-73
2023/01/02 10:05:24;;;;;;;;;;;9.80;99.90;;;;;;8389421;28;19946;-73
2023/01/02 10:09:34;;;;;;;;;;;9.80;99.90;;;;;;8386795;28;19931;-73
2023/01/02 10:13:40;;;;;;;;;;;9.80;99.90;;;;;;8384650;28;19935;-73
2023/01/02 10:18:22;;;;;;;;;;;9.80;99.90;;;;;;8382386;28;19925;-73
2023/01/02 10:22:28;;;;;;;;;;;9.90;99.90;;;;;;8363003;28;19931;-74
2023/01/02 10:26:33;;;;;;;;;;;10.00;99.90;;;;;;8383829;28;19925;-74
2023/01/02 10:30:37;;;;;;;;;;;10.00;99.90;;;;;;8390190;28;20066;-73
2023/01/02 10:34:41;;;;;;;;;;;10.00;99.90;;;;;;8387242;28;19997;-73
2023/01/02 10:38:43;;;;;;;;;;;10.00;99.90;;;;;;8385666;28;19931;-73
2023/01/02 10:42:45;;;;;;;;;;;10.10;99.90;;;;;;8378194;28;19929;-73
2023/01/02 10:46:46;;;;;;;;;;;10.10;99.90;;;;;;8392161;28;20348;-73
2023/01/02 10:50:55;;;;;;;;;;;10.10;99.90;;;;;;8375809;28;19970;-73
2023/01/02 10:54:57;;;;;;;;;;;10.10;99.90;;;;;;8390989;28;19972;-73
2023/01/02 10:59:01;;;;;;;;;;;10.10;99.90;;;;;;8399402;28;19928;-73
2023/01/02 11:03:12;;;;;;;;;;;10.10;99.90;;;;;;8396597;28;19932;-74
2023/01/02 11:07:22;;;;;;;;;;;10.10;99.90;;;;;;8388291;28;19931;-74
2023/01/02 11:11:24;;;;;;;;;;;10.10;99.90;;;;;;8395372;28;20038;-73
2023/01/02 11:15:33;;;;;;;;;;;10.10;99.90;;;;;;8392425;28;19939;-73
2023/01/02 11:19:39;;;;;;;;;;;10.10;99.90;;;;;;8395955;28;20279;-73
2023/01/02 11:23:43;;;;;;;;;;;10.10;99.90;;;;;;8394986;28;20407;-73
2023/01/02 11:27:45;;;;;;;;;;;10.20;99.90;;;;;;8372331;28;20295;-73
2023/01/02 11:31:50;;;;;;;;;;;10.30;99.90;;;;;;8388416;28;19924;-73
2023/01/02 11:35:57;;;;;;;;;;;10.40;99.90;;;;;;8385848;28;20019;-73
2023/01/02 11:39:59;;;;;;;;;;;10.40;99.90;;;;;;8393774;28;20003;-74
2023/01/02 11:44:01;;;;;;;;;;;10.40;99.90;;;;;;8381484;28;20732;-74
2023/01/02 11:48:11;;;;;;;;;;;10.40;99.90;;;;;;8388991;28;19951;-73
2023/01/02 11:52:14;;;;;;;;;;;10.40;99.90;;;;;;8385322;28;19935;-73
2023/01/02 11:56:36;;;;;;;;;;;10.40;99.90;;;;;;8380687;28;19931;-73
2023/01/02 12:00:38;;;;;;;;;;;10.50;99.90;;;;;;8384086;28;19929;-73
2023/01/02 12:04:40;;;;;;;;;;;10.50;99.90;;;;;;8391475;28;19934;-73
2023/01/02 12:08:42;;;;;;;;;;;10.40;99.90;;;;;;8381781;28;19925;-73
2023/01/02 12:13:26;;;;;;;;;;;10.40;99.90;;;;;;8384962;28;19931;-73
2023/01/02 12:17:35;;;;;;;;;;;10.40;99.90;;;;;;8264339;28;20641;-73
2023/01/02 12:21:50;;;;;;;;;;;10.30;99.90;;;;;;8367839;28;19946;-73
2023/01/02 12:26:10;;;;;;;;;;;10.30;99.90;;;;;;8384008;28;19928;-73
2023/01/02 12:30:21;;;;;;;;;;;10.30;99.90;;;;;;8385978;28;19928;-73
2023/01/02 12:34:33;;;;;;;;;;;10.30;99.90;;;;;;8386699;28;20011;-73
2023/01/02 12:38:44;;;;;;;;;;;10.30;99.90;;;;;;8387049;28;19925;-73
2023/01/02 12:42:56;;;;;;;;;;;10.30;99.90;;;;;;8377413;28;19934;-73
2023/01/02 12:47:06;;;;;;;;;;;10.30;99.90;;;;;;8391865;28;19979;-73
2023/01/02 12:51:14;;;;;;;;;;;10.30;99.90;;;;;;8369505;28;19935;-73
2023/01/02 12:55:16;;;;;;;;;;;10.30;99.90;;;;;;8382200;28;20395;-73
2023/01/02 12:59:18;;;;;;;;;;;10.30;99.90;;;;;;8383861;28;19924;-73
2023/01/02 13:03:49;;;;;;;;;;;10.30;99.90;;;;;;8378590;28;19969;-73
2023/01/02 13:07:59;;;;;;;;;;;10.30;99.90;;;;;;8368014;28;19928;-73
2023/01/02 13:12:03;;;;;;;;;;;10.30;99.90;;;;;;8384550;28;19928;-73
2023/01/02 13:16:08;;;;;;;;;;;10.20;99.90;;;;;;8390467;28;19931;-73
2023/01/02 13:20:41;;;;;;;;;;;10.10;99.90;;;;;;8382935;28;20004;-73
2023/01/02 13:24:43;;;;;;;;;;;10.10;99.90;;;;;;8392884;28;19931;-73
2023/01/02 13:28:52;;;;;;;;;;;10.00;99.90;;;;;;8384532;28;20391;-74
2023/01/02 13:32:56;;;;;;;;;;;9.90;99.90;;;;;;8382857;28;19931;-73
2023/01/02 13:37:05;;;;;;;;;;;9.90;99.90;;;;;;8387867;28;19939;-73
2023/01/02 13:41:07;;;;;;;;;;;9.80;99.90;;;;;;8366353;28;19924;-73
2023/01/02 13:45:10;;;;;;;;;;;9.80;99.90;;;;;;8378908;28;19932;-73
2023/01/02 13:49:16;;;;;;;;;;;9.70;99.90;;;;;;8382368;28;20303;-73
2023/01/02 13:53:25;;;;;;;;;;;9.70;99.90;;;;;;8379541;28;19924;-74
2023/01/02 13:57:26;;;;;;;;;;;9.70;99.90;;;;;;8385308;28;19934;-73
2023/01/02 14:01:37;;;;;;;;;;;9.70;99.90;;;;;;8379917;28;19928;-73
2023/01/02 14:06:02;;;;;;;;;;;9.70;99.90;;;;;;8371510;28;19939;-73
2023/01/02 14:10:15;;;;;;;;;;;9.70;99.90;;;;;;8376703;28;20063;-73
2023/01/02 14:14:34;;;;;;;;;;;9.70;99.90;;;;;;8380943;28;20444;-74
2023/01/02 14:18:36;;;;;;;;;;;9.70;99.90;;;;;;8383430;28;19924;-73
2023/01/02 14:22:45;;;;;;;;;;;9.70;99.90;;;;;;8388803;28;20337;-73
2023/01/02 14:26:51;;;;;;;;;;;9.70;99.90;;;;;;8379449;28;19948;-73
2023/01/02 14:30:53;;;;;;;;;;;9.70;99.90;;;;;;8359875;28;19929;-73
2023/01/02 14:34:56;;;;;;;;;;;9.70;99.90;;;;;;8384814;28;20264;-73
2023/01/02 14:38:58;;;;;;;;;;;9.70;99.90;;;;;;8401512;28;19955;-73
2023/01/02 14:47:31;;;;;;;;;;;9.70;99.90;;;;;;8392389;28;21472;-74
2023/01/02 14:51:39;;;;;;;;;;;9.60;99.90;;;;;;8385957;28;19978;-73
2023/01/02 14:55:41;;;;;;;;;;;9.60;99.90;;;;;;8371367;28;20247;-73
2023/01/02 14:59:46;;;;;;;;;;;9.60;99.90;;;;;;8380691;28;20579;-73
2023/01/02 15:03:48;;;;;;;;;;;9.60;99.90;;;;;;8390568;28;19990;-73
2023/01/02 15:07:51;;;;;;;;;;;9.60;99.90;;;;;;8389525;28;19960;-73
2023/01/02 15:16:38;;;;;;;;;;;9.60;99.90;;;;;;8312835;28;19946;-74
2023/01/02 15:20:47;;;;;;;;;;;9.60;99.90;;;;;;8353840;28;20379;-73
2023/01/02 15:45:29;;;;;;;;;;;9.40;99.90;;;;;;8383562;28;19966;-73
2023/01/02 15:49:31;;;;;;;;;;;9.40;99.90;;;;;;8381911;28;19931;-73
2023/01/02 15:53:35;;;;;;;;;;;9.40;99.90;;;;;;8382459;28;19935;-72
2023/01/02 15:57:43;;;;;;;;;;;9.40;99.90;;;;;;8402341;28;19925;-73
2023/01/02 16:01:45;;;;;;;;;;;9.40;99.90;;;;;;8366870;28;19931;-73
2023/01/02 16:05:47;;;;;;;;;;;9.40;99.90;;;;;;8360971;28;19925;-73
2023/01/02 16:09:53;;;;;;;;;;;9.40;99.90;;;;;;8365427;28;19935;-73
2023/01/02 16:14:18;;;;;;;;;;;9.40;99.90;;;;;;8378602;28;19936;-73
2023/01/02 16:18:20;;;;;;;;;;;9.30;99.90;;;;;;8376775;28;19925;-73
2023/01/02 16:22:40;;;;;;;;;;;9.30;99.90;;;;;;8360291;28;20549;-73
2023/01/02 16:26:42;;;;;;;;;;;9.20;99.90;;;;;;8364605;28;19928;-72
2023/01/02 16:30:44;;;;;;;;;;;9.10;99.90;;;;;;8361765;28;19940;-73
2023/01/02 16:34:56;;;;;;;;;;;9.10;99.90;;;;;;8364414;28;20395;-73
2023/01/02 16:38:59;;;;;;;;;;;9.00;99.90;;;;;;8377311;28;20292;-73
2023/01/02 16:43:06;;;;;;;;;;;8.90;99.90;;;;;;8352051;28;19960;-73
2023/01/02 16:47:08;;;;;;;;;;;8.90;99.90;;;;;;8363860;28;19925;-72
2023/01/02 16:51:12;;;;;;;;;;;8.80;99.90;;;;;;8368527;28;20028;-73
2023/01/02 16:55:15;;;;;;;;;;;8.80;99.90;;;;;;8363719;28;19991;-73
2023/01/02 16:59:16;;;;;;;;;;;8.70;99.90;;;;;;8379164;28;19936;-73
2023/01/02 17:03:22;;;;;;;;;;;8.70;99.90;;;;;;8359984;28;20353;-72
2023/01/02 17:07:24;;;;;;;;;;;8.70;99.90;;;;;;8365358;28;19929;-72
2023/01/02 17:11:26;;;;;;;;;;;8.70;99.90;;;;;;8346953;28;19965;-72
2023/01/02 17:15:28;;;;;;;;;;;8.60;99.90;;;;;;8361607;28;20027;-72
2023/01/02 17:19:29;;;;;;;;;;;8.60;99.90;;;;;;8365880;28;19976;-73
2023/01/02 17:23:34;;;;;;;;;;;8.60;99.90;;;;;;8360383;28;19925;-72
2023/01/02 17:27:35;;;;;;;;;;;8.60;99.90;;;;;;8365433;28;19976;-72
2023/01/02 17:31:37;;;;;;;;;;;8.60;99.90;;;;;;8367337;28;19963;-73
2023/01/02 17:35:39;;;;;;;;;;;8.60;99.90;;;;;;8350495;28;19994;-73
2023/01/02 17:39:41;;;;;;;;;;;8.50;99.90;;;;;;8364279;28;19928;-73
2023/01/02 17:43:42;;;;;;;;;;;8.50;99.90;;;;;;8363978;28;19961;-73
2023/01/02 17:48:03;;;;;;;;;;;8.40;99.90;;;;;;8360458;28;20327;-72
2023/01/02 17:52:11;;;;;;;;;;;8.30;99.90;;;;;;8358619;28;19928;-73
2023/01/02 17:56:13;;;;;;;;;;;8.20;99.90;;;;;;8374096;28;19928;-73
2023/01/02 18:00:22;;;;;;;;;;;8.20;99.90;;;;;;8362885;28;19928;-72
2023/01/02 18:04:24;;;;;;;;;;;8.10;99.90;;;;;;8377289;28;19929;-73
2023/01/02 18:08:25;;;;;;;;;;;8.00;99.90;;;;;;8363642;28;20012;-73
2023/01/02 18:12:27;;;;;;;;;;;7.90;99.90;;;;;;8374414;28;19924;-73
2023/01/02 18:16:33;;;;;;;;;;;7.80;99.90;;;;;;8383382;28;20296;-73
2023/01/02 18:20:36;;;;;;;;;;;7.70;99.90;;;;;;8379508;28;20194;-73
2023/01/02 18:24:38;;;;;;;;;;;7.70;99.90;;;;;;8392034;28;19928;-72
2023/01/02 18:28:45;;;;;;;;;;;7.60;99.90;;;;;;8386990;28;20399;-73
2023/01/02 18:32:47;;;;;;;;;;;7.60;99.90;;;;;;8363172;28;19975;-73
2023/01/02 18:36:49;;;;;;;;;;;7.60;99.90;;;;;;8387261;28;19948;-73
2023/01/02 18:40:52;;;;;;;;;;;7.70;99.90;;;;;;8390185;28;20265;-72
2023/01/02 18:44:55;;;;;;;;;;;7.70;99.90;;;;;;8384129;28;19937;-73
2023/01/02 18:48:56;;;;;;;;;;;7.80;99.90;;;;;;8386979;28;19924;-72
2023/01/02 18:53:06;;;;;;;;;;;7.70;99.90;;;;;;8384919;28;19930;-72
2023/01/02 18:57:13;;;;;;;;;;;7.80;99.90;;;;;;8386090;28;19924;-73
2023/01/02 19:01:29;;;;;;;;;;;7.70;99.90;;;;;;8365875;28;20426;-73
2023/01/02 19:05:33;;;;;;;;;;;7.60;99.90;;;;;;8386261;28;19936;-73
2023/01/02 19:09:36;;;;;;;;;;;7.60;99.90;;;;;;8391867;28;19979;-73
2023/01/02 19:13:38;;;;;;;;;;;7.50;99.90;;;;;;8371660;28;19928;-73
2023/01/02 19:17:40;;;;;;;;;;;7.50;99.90;;;;;;8385179;28;20002;-72
2023/01/02 19:21:41;;;;;;;;;;;7.40;99.90;;;;;;8397676;28;19936;-72
2023/01/02 19:25:43;;;;;;;;;;;7.30;99.90;;;;;;8377152;28;20403;-72
2023/01/02 19:29:47;;;;;;;;;;;7.20;99.90;;;;;;8393568;28;19924;-72
2023/01/02 19:33:51;;;;;;;;;;;7.10;99.90;;;;;;8388716;28;19928;-72
2023/01/02 19:37:53;;;;;;;;;;;7.10;99.90;;;;;;8390734;28;19939;-73
2023/01/02 19:51:19;;;;;;;;;;;6.90;99.90;;;;;;8389325;28;19919;-72
2023/01/02 19:55:20;;;;;;;;;;;6.80;99.90;;;;;;8405499;28;19928;-72
2023/01/02 19:59:22;;;;;;;;;;;6.80;99.90;;;;;;8366621;28;19928;-72
2023/01/02 20:03:23;;;;;;;;;;;6.70;99.90;;;;;;8382660;28;19929;-72
2023/01/02 20:07:25;;;;;;;;;;;6.70;99.90;;;;;;8396267;28;20014;-72
2023/01/02 20:15:47;;;;;;;;;;;6.60;99.90;;;;;;8380739;28;20002;-72
2023/01/02 20:19:49;;;;;;;;;;;6.50;99.90;;;;;;8371273;28;19977;-72
2023/01/02 20:23:51;;;;;;;;;;;6.50;99.90;;;;;;8393168;28;19933;-72
2023/01/02 20:27:57;;;;;;;;;;;6.40;99.90;;;;;;8375747;28;19928;-72
2023/01/02 20:32:01;;;;;;;;;;;6.30;99.90;;;;;;8387150;28;19982;-72
2023/01/02 20:36:03;;;;;;;;;;;6.30;99.90;;;;;;8398902;28;19924;-72
2023/01/02 20:40:13;;;;;;;;;;;6.20;99.90;;;;;;8377804;28;19931;-72
2023/01/02 20:44:15;;;;;;;;;;;6.20;99.90;;;;;;8390764;28;20015;-73
2023/01/02 20:48:16;;;;;;;;;;;6.10;99.90;;;;;;8386821;28;19972;-72
2023/01/02 20:52:19;;;;;;;;;;;6.10;99.90;;;;;;8391736;28;19975;-72
2023/01/02 20:56:20;;;;;;;;;;;6.10;99.90;;;;;;8386617;28;20376;-72
2023/01/02 21:00:22;;;;;;;;;;;6.00;99.90;;;;;;8382960;28;19924;-72
2023/01/02 21:04:24;;;;;;;;;;;6.00;99.90;;;;;;8369088;28;19990;-72
2023/01/02 21:08:35;;;;;;;;;;;5.90;99.90;;;;;;8373865;28;20277;-72
2023/01/02 21:16:57;;;;;;;;;;;5.80;99.90;;;;;;8390689;28;20392;-73
2023/01/02 21:25:56;;;;;;;;;;;5.80;99.90;;;;;;8366673;28;19924;-72
2023/01/02 21:29:58;;;;;;;;;;;5.80;99.90;;;;;;8383336;28;20647;-72
2023/01/02 21:33:59;;;;;;;;;;;5.70;99.90;;;;;;8377433;28;19951;-72
2023/01/02 21:38:01;;;;;;;;;;;5.70;99.90;;;;;;8383208;28;20384;-72
2023/01/02 21:42:15;;;;;;;;;;;5.70;99.90;;;;;;8379574;28;19925;-72
2023/01/02 21:46:16;;;;;;;;;;;5.60;99.90;;;;;;8371197;28;19925;-72
2023/01/02 21:50:18;;;;;;;;;;;5.50;99.90;;;;;;8373084;28;20304;-72
2023/01/02 21:54:20;;;;;;;;;;;5.50;99.90;;;;;;8387766;28;19932;-72
2023/01/02 21:58:21;;;;;;;;;;;5.50;99.90;;;;;;8397705;28;19955;-72
2023/01/02 22:02:23;;;;;;;;;;;5.50;99.90;;;;;;8392331;28;19925;-72
2023/01/02 22:06:33;;;;;;;;;;;5.50;99.90;;;;;;8380720;28;20599;-73
2023/01/02 22:10:35;;;;;;;;;;;5.50;99.90;;;;;;8394446;28;19969;-72
2023/01/02 22:14:37;;;;;;;;;;;5.40;99.90;;;;;;8383571;28;19933;-73
2023/01/02 22:18:39;;;;;;;;;;;5.40;99.90;;;;;;8390364;28;20384;-72
2023/01/02 22:22:41;;;;;;;;;;;5.40;99.90;;;;;;8387766;28;20381;-72
2023/01/02 22:26:43;;;;;;;;;;;5.40;99.90;;;;;;8368881;28;20398;-72
2023/01/02 22:30:44;;;;;;;;;;;5.30;99.90;;;;;;8388847;28;19933;-72
2023/01/02 22:34:46;;;;;;;;;;;5.20;99.90;;;;;;8367062;28;19946;-72
2023/01/02 22:38:48;;;;;;;;;;;5.20;99.90;;;;;;8390659;28;20003;-72
2023/01/02 22:43:11;;;;;;;;;;;5.20;99.90;;;;;;8395638;28;20390;-72
2023/01/02 22:47:17;;;;;;;;;;;5.20;99.90;;;;;;8390470;28;19938;-72
2023/01/02 22:51:20;;;;;;;;;;;5.20;99.90;;;;;;8380606;28;19932;-72
2023/01/02 22:55:41;;;;;;;;;;;5.20;99.90;;;;;;8388081;28;20073;-72
2023/01/02 22:59:43;;;;;;;;;;;5.20;99.90;;;;;;8390259;28;19931;-72
2023/01/02 23:03:45;;;;;;;;;;;5.30;99.90;;;;;;8367622;28;19924;-72
2023/01/02 23:07:50;;;;;;;;;;;5.20;99.90;;;;;;8393154;28;19928;-72
2023/01/02 23:11:52;;;;;;;;;;;5.20;99.90;;;;;;8391550;28;19932;-72
2023/01/02 23:20:14;;;;;;;;;;;5.10;99.90;;;;;;8397105;28;19932;-72
2023/01/02 23:24:20;;;;;;;;;;;5.10;99.90;;;;;;8407303;28;20360;-72
2023/01/02 23:28:22;;;;;;;;;;;5.00;99.90;;;;;;8374974;28;19971;-72
2023/01/02 23:32:44;;;;;;;;;;;5.00;99.90;;;;;;8396603;28;19970;-72
2023/01/02 23:36:45;;;;;;;;;;;4.90;99.90;;;;;;8394915;28;19924;-72
2023/01/02 23:40:47;;;;;;;;;;;4.80;99.90;;;;;;8394310;28;19924;-72
2023/01/02 23:44:49;;;;;;;;;;;4.70;99.90;;;;;;8389681;28;20305;-72
2023/01/02 23:48:50;;;;;;;;;;;4.70;99.90;;;;;;8388220;28;20408;-72
2023/01/02 23:52:52;;;;;;;;;;;4.60;99.90;;;;;;8384745;28;19933;-72
2023/01/02 23:56:53;;;;;;;;;;;4.40;99.90;;;;;;8397153;28;19931;-72
